Nearby METAR Reports

Aktualna pogoda na lotniskach (dane METAR)

 

EPGD - Gdansk/Rebiechow, Poland
Distance from station: ENE 27mi, 44km
Updated: Fri, 22-Jan-2021 2:00pm PST
Few Clouds
Few Clouds
 Wind from WSW
Wind: WSW 9 mph , 15 km/h
Temperature: 39°F , 4°C
Wind Chill: 33°F , 1°C
Dew Point: 36°F , 2°C
Humidity: 87%
Barometer: 29.41 inHg , 996 hPa
Clouds: Few Clouds
Visibility: 6 miles , 10 km
Cloud details: Few Clouds 2000 ft
2021/01/22 22:00 EPGD 222200Z 25008KT 9999 FEW020 04/02 Q0996
EPSC - Szczecin/Golenio, Poland
Distance from station: WSW 128mi, 205km
Updated: Fri, 22-Jan-2021 2:00pm PST
Clear
Clear
 Wind from S
Wind: S 3 mph , 6 km/h
Temperature: 36°F , 2°C
Dew Point: 32°F , 0°C
Humidity: 87%
Barometer: 29.44 inHg , 997 hPa
Summary: Clear
Visibility: greater than 7 miles , 10 km
2021/01/22 22:00 EPSC 222200Z 17003KT 150V210 CAVOK 02/00 Q0997
 
EPPO - Poznan/Lawica, Poland
Distance from station: SSW 131mi, 210km
Updated: Fri, 22-Jan-2021 2:00pm PST
Mostly Cloudy
Mostly Cloudy
 Wind from calm
Wind: Calm
Temperature: 41°F , 5°C
Dew Point: 36°F , 2°C
Humidity: 81%
Barometer: 29.47 inHg , 998 hPa
Clouds: Mostly Cloudy
Visibility: 6 miles , 10 km
Cloud details: Mostly Cloudy 4100 ft
2021/01/22 22:00 EPPO 222200Z 00000KT 9999 BKN041 05/02 Q0998
EPLL - Lodz/Lublinek, Poland
Distance from station: SSE 184mi, 296km
Updated: Fri, 22-Jan-2021 2:00pm PST
Clear
Clear
 Wind from varies
Wind: varies 2 mph , 4 km/h
Temperature: 41°F , 5°C
Dew Point: 37°F , 3°C
Humidity: 87%
Barometer: 29.47 inHg , 998 hPa
Summary: Clear
Visibility: greater than 7 miles , 10 km
2021/01/22 22:00 EPLL 222200Z VRB02KT CAVOK 05/03 Q0998
 
EPWA - Warsaw/Okecie, Poland
Distance from station: SE 191mi, 307km
Updated: Fri, 22-Jan-2021 2:00pm PST
Clear
Clear
 Wind from SE
Wind: SE 9 mph , 15 km/h
Temperature: 36°F , 2°C
Wind Chill: 29°F , -2°C
Dew Point: 34°F , 1°C
Humidity: 93%
Barometer: 29.5 inHg , 999 hPa
Summary: Clear
Visibility: greater than 7 miles , 10 km
2021/01/22 22:00 EPWA 222200Z 14008KT CAVOK 02/01 Q0999 NOSIG
EPWR - Wroclaw/Strachow, Poland
Distance from station: S 219mi, 352km
Updated: Fri, 22-Jan-2021 2:00pm PST
Clear
Clear
 Wind from WNW
Wind: WNW 8 mph , 13 km/h
Temperature: 43°F , 6°C
Wind Chill: 38°F , 3°C
Dew Point: 37°F , 3°C
Humidity: 81%
Barometer: 29.47 inHg , 998 hPa
Summary: Clear
Visibility: greater than 7 miles , 10 km
2021/01/22 22:00 EPWR 222200Z 29007KT 260V330 CAVOK 06/03 Q0998

Metar display script from Saratoga-Weather.org